createdAt,value
2016-11-27T00:00:05.366Z,19.31
2016-11-27T00:00:33.615Z,19.35
2016-11-27T00:01:01.822Z,19.5
2016-11-27T00:01:30.098Z,19.45
2016-11-27T00:02:18.701Z,19.45
2016-11-27T00:02:47.051Z,19.38
2016-11-27T00:03:15.198Z,19.38
2016-11-27T00:03:43.459Z,19.42
2016-11-27T00:04:11.639Z,19.45
2016-11-27T00:04:39.933Z,19.45
2016-11-27T00:05:07.929Z,19.46
2016-11-27T00:05:36.195Z,19.46
2016-11-27T00:06:04.275Z,19.42
2016-11-27T00:06:32.471Z,19.43
2016-11-27T00:07:00.683Z,19.46
2016-11-27T00:07:28.970Z,19.38
2016-11-27T00:07:57.156Z,19.5
2016-11-27T00:08:25.189Z,19.47
2016-11-27T00:08:53.261Z,19.52
2016-11-27T00:09:21.509Z,19.42
2016-11-27T00:09:49.472Z,19.56
2016-11-27T00:10:17.752Z,19.49
2016-11-27T00:10:45.903Z,19.45
2016-11-27T00:11:14.125Z,19.4
2016-11-27T00:11:42.269Z,19.45
2016-11-27T00:12:10.267Z,19.4
2016-11-27T00:12:38.443Z,19.42
2016-11-27T00:13:06.739Z,19.35
2016-11-27T00:13:34.867Z,19.37
2016-11-27T00:14:03.281Z,19.34
2016-11-27T00:14:31.596Z,19.31
2016-11-27T00:14:59.786Z,19.42
2016-11-27T00:15:27.890Z,19.32
2016-11-27T00:15:56.040Z,19.4
2016-11-27T00:16:24.244Z,19.34
2016-11-27T00:16:52.531Z,19.32
2016-11-27T00:17:41.155Z,19.34
2016-11-27T00:18:09.420Z,19.32
2016-11-27T00:18:37.445Z,19.34
2016-11-27T00:19:05.590Z,19.35
2016-11-27T00:19:33.657Z,19.35
2016-11-27T00:20:01.952Z,19.42
2016-11-27T00:20:30.259Z,19.35
2016-11-27T00:20:58.367Z,19.3
2016-11-27T00:21:26.468Z,19.32
2016-11-27T00:21:54.624Z,19.4
2016-11-27T00:22:22.923Z,19.34
2016-11-27T00:22:51.064Z,19.37
2016-11-27T00:23:51.020Z,19.35
2016-11-27T00:24:19.052Z,19.32
2016-11-27T00:24:47.290Z,19.37
2016-11-27T00:25:15.475Z,19.34
2016-11-27T00:25:43.619Z,19.3
2016-11-27T00:26:11.734Z,19.31
2016-11-27T00:26:39.908Z,19.28
2016-11-27T00:27:08.105Z,19.35
2016-11-27T00:27:36.377Z,19.32
2016-11-27T00:28:04.572Z,19.31
2016-11-27T00:28:32.782Z,19.19
2016-11-27T00:29:00.913Z,19.23
2016-11-27T00:29:29.075Z,19.27
2016-11-27T00:29:57.213Z,19.17
2016-11-27T00:30:25.419Z,19.24
2016-11-27T00:30:53.493Z,19.24
2016-11-27T00:31:21.604Z,19.24
2016-11-27T00:31:49.852Z,19.25
2016-11-27T00:32:18.005Z,19.2
2016-11-27T00:32:46.152Z,19.17
2016-11-27T00:33:14.298Z,19.27
2016-11-27T00:33:42.310Z,19.19
2016-11-27T00:34:36.612Z,19.2
2016-11-27T00:35:04.663Z,19.16
2016-11-27T00:35:32.915Z,19.13
2016-11-27T00:36:01.149Z,19.23
2016-11-27T00:36:29.227Z,19.15
2016-11-27T00:37:34.698Z,19.17
2016-11-27T00:38:03.007Z,19.12
2016-11-27T00:38:31.281Z,19.15
2016-11-27T00:38:59.555Z,19.17
2016-11-27T00:39:27.837Z,19.13
2016-11-27T00:39:55.982Z,19.13
2016-11-27T00:40:24.035Z,19.13
2016-11-27T00:40:52.236Z,19.17
2016-11-27T00:41:20.589Z,19.17
2016-11-27T00:41:48.874Z,19.17
2016-11-27T00:42:17.084Z,19.19
2016-11-27T00:42:45.281Z,19.15
2016-11-27T00:43:13.514Z,19.2
2016-11-27T00:43:41.745Z,19.16
2016-11-27T00:44:09.985Z,19.19
2016-11-27T00:44:38.330Z,19.13
2016-11-27T00:45:06.440Z,19.23
2016-11-27T00:45:34.565Z,19.16
2016-11-27T00:46:02.875Z,19.12
2016-11-27T00:46:30.998Z,19.15
2016-11-27T00:46:59.150Z,19.16
2016-11-27T00:47:27.412Z,19.15
2016-11-27T00:47:55.555Z,19.12
2016-11-27T00:48:23.744Z,19.02
2016-11-27T00:48:52.078Z,19.15
2016-11-27T00:49:20.375Z,19.17
2016-11-27T00:49:48.696Z,19.15
2016-11-27T00:50:16.887Z,19.12
2016-11-27T00:50:45.217Z,19.09
2016-11-27T00:51:13.352Z,19.15
2016-11-27T00:51:41.583Z,19.17
2016-11-27T00:52:09.628Z,19.15
2016-11-27T00:52:37.836Z,19.15
2016-11-27T00:53:05.976Z,19.16
2016-11-27T00:53:34.263Z,19.27
2016-11-27T00:54:02.454Z,19.15
2016-11-27T00:54:30.636Z,19.23
2016-11-27T00:54:58.985Z,19.15
2016-11-27T00:55:27.307Z,19.24
2016-11-27T00:55:55.498Z,19.17
2016-11-27T00:56:23.719Z,19.16
2016-11-27T00:56:51.830Z,19.16
2016-11-27T00:57:20.038Z,19.09
2016-11-27T00:57:48.135Z,19.16
2016-11-27T00:58:16.313Z,19.07
2016-11-27T00:58:44.438Z,19.15
2016-11-27T00:59:12.721Z,19.06
2016-11-27T00:59:40.962Z,19.09
2016-11-27T01:00:09.225Z,19.09
2016-11-27T01:00:37.384Z,19.09
2016-11-27T01:01:05.495Z,19.1
2016-11-27T01:01:33.781Z,19.09
2016-11-27T01:02:02.085Z,19.07
2016-11-27T01:02:30.386Z,19.05
2016-11-27T01:02:58.505Z,19.07
2016-11-27T01:03:26.851Z,19.09
2016-11-27T01:03:55.222Z,19.07
2016-11-27T01:04:23.436Z,19.12
2016-11-27T01:04:51.577Z,19.07
2016-11-27T01:05:19.871Z,19.09
2016-11-27T01:05:48.186Z,19.09
2016-11-27T01:06:16.308Z,19.15
2016-11-27T01:06:44.578Z,19.07
2016-11-27T01:07:12.813Z,19.13
2016-11-27T01:07:40.970Z,19.09
2016-11-27T01:08:09.089Z,19.09
2016-11-27T01:08:37.306Z,19.07
2016-11-27T01:09:05.406Z,19.12
2016-11-27T01:09:33.584Z,19.1
2016-11-27T01:10:01.727Z,19.09
2016-11-27T01:10:29.946Z,19.06
2016-11-27T01:11:29.803Z,19.16
2016-11-27T01:11:57.907Z,19.06
2016-11-27T01:12:26.235Z,18.97
2016-11-27T01:12:54.423Z,19.13
2016-11-27T01:13:22.680Z,19
2016-11-27T01:13:50.908Z,18.99
2016-11-27T01:14:19.125Z,18.97
2016-11-27T01:14:47.265Z,19.06
2016-11-27T01:15:15.404Z,18.99
2016-11-27T01:15:43.565Z,19.02
2016-11-27T01:16:11.852Z,19
2016-11-27T01:16:40.035Z,18.96
2016-11-27T01:17:08.115Z,18.99
2016-11-27T01:17:36.487Z,19.02
2016-11-27T01:18:04.695Z,19
2016-11-27T01:18:32.999Z,19.07
2016-11-27T01:19:01.139Z,19.05
2016-11-27T01:19:29.300Z,19.06
2016-11-27T01:19:57.496Z,19
2016-11-27T01:20:25.601Z,18.96
2016-11-27T01:20:53.891Z,19.05
2016-11-27T01:21:22.113Z,18.94
2016-11-27T01:21:50.377Z,18.91
2016-11-27T01:23:01.537Z,18.9
2016-11-27T01:23:29.659Z,18.93
2016-11-27T01:23:57.847Z,18.91
2016-11-27T01:24:25.967Z,18.89
2016-11-27T01:24:54.206Z,18.87
2016-11-27T01:25:22.474Z,18.93
2016-11-27T01:25:50.642Z,18.87
2016-11-27T01:26:18.872Z,18.89
2016-11-27T01:26:46.995Z,18.86
2016-11-27T01:27:15.275Z,18.84
2016-11-27T01:27:43.571Z,18.94
2016-11-27T01:28:11.890Z,18.91
2016-11-27T01:28:39.908Z,18.97
2016-11-27T01:29:08.510Z,18.89
2016-11-27T01:29:36.396Z,18.94
2016-11-27T01:30:04.739Z,18.96
2016-11-27T01:30:33.015Z,18.89
2016-11-27T01:31:01.073Z,19
2016-11-27T01:31:29.220Z,18.9
2016-11-27T01:31:57.452Z,18.84
2016-11-27T01:32:25.472Z,18.86
2016-11-27T01:32:53.785Z,18.91
2016-11-27T01:33:21.923Z,18.97
2016-11-27T01:33:50.263Z,18.94
2016-11-27T01:34:18.525Z,18.87
2016-11-27T01:34:46.546Z,18.97
2016-11-27T01:35:14.649Z,18.96
2016-11-27T01:35:42.707Z,18.94
2016-11-27T01:36:10.816Z,19.02
2016-11-27T01:36:38.859Z,18.99
2016-11-27T01:37:06.944Z,18.94
2016-11-27T01:37:35.137Z,18.97
2016-11-27T01:38:03.393Z,18.87
2016-11-27T01:38:31.695Z,18.93
2016-11-27T01:38:59.861Z,18.94
2016-11-27T01:39:27.985Z,18.93
2016-11-27T01:39:56.117Z,18.96
2016-11-27T01:40:24.273Z,18.93
2016-11-27T01:40:52.542Z,18.94
2016-11-27T01:41:20.822Z,18.99
2016-11-27T01:41:49.012Z,18.99
2016-11-27T01:42:17.344Z,19.05
2016-11-27T01:42:45.494Z,18.97
2016-11-27T01:43:13.515Z,18.93
2016-11-27T01:43:41.808Z,19
2016-11-27T01:44:10.045Z,18.99
2016-11-27T01:44:38.362Z,18.94
2016-11-27T01:45:06.443Z,18.9
2016-11-27T01:45:34.609Z,18.91
2016-11-27T01:46:02.919Z,18.94
2016-11-27T01:46:31.220Z,19.02
2016-11-27T01:46:59.271Z,18.9
2016-11-27T01:47:27.415Z,18.97
2016-11-27T01:47:55.477Z,18.94
2016-11-27T01:48:23.600Z,18.91
2016-11-27T01:48:51.861Z,18.89
2016-11-27T01:49:19.919Z,18.87
2016-11-27T01:49:48.103Z,18.91
2016-11-27T01:50:16.008Z,18.99
2016-11-27T01:50:44.204Z,18.89
2016-11-27T01:51:12.324Z,18.87
2016-11-27T01:51:40.622Z,18.86
2016-11-27T01:52:08.835Z,18.87
2016-11-27T01:52:36.997Z,18.87
2016-11-27T01:53:05.145Z,18.78
2016-11-27T01:53:33.458Z,18.82
2016-11-27T01:54:01.611Z,18.87
2016-11-27T01:54:29.762Z,18.76
2016-11-27T01:54:57.980Z,18.81
2016-11-27T01:55:26.147Z,18.75
2016-11-27T01:55:54.272Z,18.81
2016-11-27T01:56:22.473Z,18.82
2016-11-27T01:56:50.656Z,18.81
2016-11-27T01:57:18.789Z,18.82
2016-11-27T01:57:46.971Z,18.78
2016-11-27T01:58:15.251Z,18.81
2016-11-27T01:58:43.428Z,18.78
2016-11-27T01:59:11.579Z,18.86
2016-11-27T01:59:39.815Z,18.79
2016-11-27T02:00:07.982Z,18.87
2016-11-27T02:00:36.176Z,18.89
2016-11-27T02:01:04.418Z,18.87
2016-11-27T02:01:32.667Z,18.82
2016-11-27T02:02:00.782Z,18.89
2016-11-27T02:02:28.855Z,18.87
2016-11-27T02:02:56.901Z,18.82
2016-11-27T02:03:25.061Z,18.96
2016-11-27T02:03:53.282Z,18.87
2016-11-27T02:04:21.441Z,18.9
2016-11-27T02:04:49.627Z,19.02
2016-11-27T02:05:17.683Z,18.99
2016-11-27T02:05:45.728Z,18.89
2016-11-27T02:06:51.241Z,18.96
2016-11-27T02:07:19.350Z,19.06
2016-11-27T02:07:47.491Z,19.06
2016-11-27T02:08:15.608Z,19.07
2016-11-27T02:08:43.959Z,19.02
2016-11-27T02:09:12.030Z,18.99
2016-11-27T02:09:40.155Z,18.96
2016-11-27T02:10:08.533Z,19
2016-11-27T02:10:36.671Z,19.02
2016-11-27T02:11:04.693Z,19.15
2016-11-27T02:11:32.927Z,19.12
2016-11-27T02:12:01.251Z,19.09
2016-11-27T02:12:29.298Z,19.07
2016-11-27T02:12:57.450Z,19.15
2016-11-27T02:13:25.728Z,19.13
2016-11-27T02:13:53.992Z,19.15
2016-11-27T02:14:22.127Z,19.16
2016-11-27T02:14:50.114Z,19.17
2016-11-27T02:15:18.165Z,19.23
2016-11-27T02:15:46.211Z,19.27
2016-11-27T02:16:14.264Z,19.24
2016-11-27T02:16:42.420Z,19.2
2016-11-27T02:17:10.495Z,19.23
2016-11-27T02:17:38.787Z,19.19
2016-11-27T02:18:07.082Z,19.25
2016-11-27T02:18:35.094Z,19.3
2016-11-27T02:19:03.491Z,19.31
2016-11-27T02:19:31.581Z,19.35
2016-11-27T02:19:59.825Z,19.35
2016-11-27T02:20:27.986Z,19.34
2016-11-27T02:20:56.309Z,19.35
2016-11-27T02:21:24.544Z,19.32
2016-11-27T02:21:52.765Z,19.31
2016-11-27T02:22:20.909Z,19.34
2016-11-27T02:22:49.101Z,19.35
2016-11-27T02:23:17.243Z,19.37
2016-11-27T02:23:45.337Z,19.31
2016-11-27T02:24:13.413Z,19.35
2016-11-27T02:24:41.566Z,19.32
2016-11-27T02:25:09.917Z,19.32
2016-11-27T02:25:38.021Z,19.31
2016-11-27T02:26:06.100Z,19.31
2016-11-27T02:26:34.132Z,19.31
2016-11-27T02:27:02.183Z,19.32
2016-11-27T02:27:30.306Z,19.43
2016-11-27T02:27:58.559Z,19.3
2016-11-27T02:28:26.731Z,19.31
2016-11-27T02:28:55.107Z,19.35
2016-11-27T02:29:23.393Z,19.38
2016-11-27T02:29:51.663Z,19.47
2016-11-27T02:30:19.795Z,19.47
2016-11-27T02:30:47.907Z,19.49
2016-11-27T02:31:16.208Z,19.45
2016-11-27T02:31:44.402Z,19.45
2016-11-27T02:32:12.586Z,19.34
2016-11-27T02:32:40.882Z,19.5
2016-11-27T02:33:09.064Z,19.45
2016-11-27T02:33:37.110Z,19.45
2016-11-27T02:34:05.340Z,19.49
2016-11-27T02:34:33.515Z,19.47
2016-11-27T02:35:01.556Z,19.43
2016-11-27T02:35:29.599Z,19.49
2016-11-27T02:35:57.749Z,19.47
2016-11-27T02:36:25.826Z,19.49
2016-11-27T02:36:53.885Z,19.43
2016-11-27T02:37:22.113Z,19.46
2016-11-27T02:37:50.385Z,19.4
2016-11-27T02:38:18.587Z,19.34
2016-11-27T02:38:46.846Z,19.32
2016-11-27T02:39:15.197Z,19.32
2016-11-27T02:39:43.285Z,19.38
2016-11-27T02:40:11.451Z,19.34
2016-11-27T02:40:39.404Z,19.37
2016-11-27T02:41:07.508Z,19.3
2016-11-27T02:41:35.492Z,19.32
2016-11-27T02:42:03.793Z,19.24
2016-11-27T02:42:31.952Z,19.25
2016-11-27T02:43:20.460Z,19.23
2016-11-27T02:43:48.529Z,19.23
2016-11-27T02:44:16.910Z,19.2
2016-11-27T02:44:45.169Z,19.2
2016-11-27T02:45:13.289Z,19.28
2016-11-27T02:45:41.349Z,19.32
2016-11-27T02:46:09.420Z,19.23
2016-11-27T02:46:37.335Z,19.19
2016-11-27T02:47:05.598Z,19.23
2016-11-27T02:47:33.607Z,19.19
2016-11-27T02:48:01.812Z,19.24
2016-11-27T02:48:30.052Z,19.35
2016-11-27T02:48:58.310Z,19.28
2016-11-27T02:49:26.542Z,19.28
2016-11-27T02:49:54.759Z,19.31
2016-11-27T02:50:22.960Z,19.31
2016-11-27T02:50:51.278Z,19.31
2016-11-27T02:51:19.420Z,19.34
2016-11-27T02:51:47.464Z,19.32
2016-11-27T02:52:15.635Z,19.35
2016-11-27T02:52:43.784Z,19.38
2016-11-27T02:53:11.969Z,19.46
2016-11-27T02:53:40.066Z,19.37
2016-11-27T02:54:08.305Z,19.47
2016-11-27T02:54:36.629Z,19.47
2016-11-27T02:55:04.820Z,19.46
2016-11-27T02:55:33.133Z,19.46
2016-11-27T02:56:01.307Z,19.46
2016-11-27T02:56:29.558Z,19.45
2016-11-27T02:56:57.635Z,19.43
2016-11-27T02:57:25.949Z,19.53
2016-11-27T02:57:54.074Z,19.49
2016-11-27T02:58:22.372Z,19.5
2016-11-27T02:58:50.466Z,19.52
2016-11-27T02:59:18.455Z,19.53
2016-11-27T02:59:46.621Z,19.38
2016-11-27T03:00:14.833Z,19.53
2016-11-27T03:00:43.052Z,19.55
2016-11-27T03:01:11.131Z,19.57
2016-11-27T03:01:39.297Z,19.52
2016-11-27T03:02:07.401Z,19.5
2016-11-27T03:02:35.626Z,19.52
2016-11-27T03:03:03.799Z,19.5
2016-11-27T03:03:52.407Z,19.5
2016-11-27T03:04:20.946Z,19.52
2016-11-27T03:04:49.097Z,19.53
2016-11-27T03:05:17.320Z,19.56
2016-11-27T03:05:45.453Z,19.53
2016-11-27T03:06:13.649Z,19.55
2016-11-27T03:06:41.881Z,19.53
2016-11-27T03:07:10.078Z,19.6
2016-11-27T03:07:38.255Z,19.63
2016-11-27T03:08:06.406Z,19.53
2016-11-27T03:08:34.244Z,19.64
2016-11-27T03:09:02.508Z,19.65
2016-11-27T03:09:30.703Z,19.6
2016-11-27T03:09:58.804Z,19.63
2016-11-27T03:10:27.092Z,19.61
2016-11-27T03:10:55.357Z,19.57
2016-11-27T03:11:23.529Z,19.63
2016-11-27T03:11:51.688Z,19.57
2016-11-27T03:12:19.826Z,19.57
2016-11-27T03:12:48.074Z,19.61
2016-11-27T03:13:16.031Z,19.64
2016-11-27T03:13:44.204Z,19.6
2016-11-27T03:14:12.373Z,19.65
2016-11-27T03:14:40.874Z,19.67
2016-11-27T03:15:08.896Z,19.61
2016-11-27T03:15:36.957Z,19.63
2016-11-27T03:16:05.093Z,19.7
2016-11-27T03:16:33.237Z,19.78
2016-11-27T03:17:01.286Z,19.72
2016-11-27T03:17:29.373Z,19.65
2016-11-27T03:18:23.556Z,19.75
2016-11-27T03:18:51.712Z,19.67
2016-11-27T03:19:19.950Z,19.74
2016-11-27T03:20:30.942Z,19.7
2016-11-27T03:20:59.072Z,19.74
2016-11-27T03:21:27.234Z,19.72
2016-11-27T03:21:55.339Z,19.75
2016-11-27T03:22:23.579Z,19.75
2016-11-27T03:22:51.716Z,19.72
2016-11-27T03:23:19.976Z,19.74
2016-11-27T03:23:48.224Z,19.74
2016-11-27T03:24:16.332Z,19.74
2016-11-27T03:24:44.599Z,19.74
2016-11-27T03:25:12.779Z,19.71
2016-11-27T03:25:40.842Z,19.7
2016-11-27T03:26:08.951Z,19.75
2016-11-27T03:26:37.125Z,19.71
2016-11-27T03:27:05.379Z,19.74
2016-11-27T03:27:33.479Z,19.75
2016-11-27T03:28:01.656Z,19.72
2016-11-27T03:28:29.838Z,19.82
2016-11-27T03:28:57.909Z,19.74
2016-11-27T03:29:26.058Z,19.85
2016-11-27T03:29:54.098Z,19.75
2016-11-27T03:30:22.386Z,19.82
2016-11-27T03:30:50.602Z,19.82
2016-11-27T03:31:18.889Z,19.83
2016-11-27T03:31:47.163Z,19.86
2016-11-27T03:32:15.320Z,19.82
2016-11-27T03:32:43.387Z,19.8
2016-11-27T03:33:11.618Z,19.83
2016-11-27T03:33:39.699Z,19.86
2016-11-27T03:34:07.916Z,19.8
2016-11-27T03:34:36.113Z,19.83
2016-11-27T03:35:04.199Z,19.79
2016-11-27T03:35:32.385Z,19.85
2016-11-27T03:36:00.635Z,19.85
2016-11-27T03:36:28.935Z,19.86
2016-11-27T03:36:57.051Z,19.85
2016-11-27T03:37:25.029Z,19.8
2016-11-27T03:37:53.229Z,19.87
2016-11-27T03:38:21.422Z,19.82
2016-11-27T03:38:49.500Z,19.82
2016-11-27T03:39:17.696Z,19.86
2016-11-27T03:39:45.910Z,19.79
2016-11-27T03:40:14.094Z,19.79
2016-11-27T03:40:42.274Z,19.82
2016-11-27T03:41:10.408Z,19.78
2016-11-27T03:41:38.370Z,19.83
2016-11-27T03:42:06.677Z,19.8
2016-11-27T03:42:34.864Z,19.8
2016-11-27T03:43:03.079Z,19.8
2016-11-27T03:43:31.259Z,19.82
2016-11-27T03:43:59.497Z,19.79
2016-11-27T03:44:27.715Z,19.79
2016-11-27T03:44:55.922Z,19.85
2016-11-27T03:45:24.180Z,19.83
2016-11-27T03:45:52.502Z,19.82
2016-11-27T03:46:20.654Z,19.8
2016-11-27T03:46:48.933Z,19.83
2016-11-27T03:47:17.102Z,19.78
2016-11-27T03:47:45.369Z,19.79
2016-11-27T03:48:13.582Z,19.8
2016-11-27T03:48:41.827Z,19.92
2016-11-27T03:49:10.035Z,19.83
2016-11-27T03:49:38.213Z,19.8
2016-11-27T03:50:06.332Z,19.85
2016-11-27T03:50:34.582Z,19.8
2016-11-27T03:51:02.661Z,19.8
2016-11-27T03:51:30.831Z,19.82
2016-11-27T03:51:59.087Z,19.75
2016-11-27T03:52:27.521Z,19.83
2016-11-27T03:52:55.803Z,19.82
2016-11-27T03:53:23.984Z,19.85
2016-11-27T03:53:52.258Z,19.83
2016-11-27T03:54:20.325Z,19.83
2016-11-27T03:54:48.519Z,19.82
2016-11-27T03:55:16.700Z,19.82
2016-11-27T03:55:44.929Z,19.83
2016-11-27T03:56:13.116Z,19.8
2016-11-27T03:56:41.171Z,19.82
2016-11-27T03:57:09.166Z,19.82
2016-11-27T03:57:37.336Z,19.74
2016-11-27T03:58:05.543Z,19.74
2016-11-27T03:58:33.706Z,19.72
2016-11-27T03:59:01.775Z,19.72
2016-11-27T03:59:29.918Z,19.72
2016-11-27T03:59:58.264Z,19.71
2016-11-27T04:00:26.440Z,19.78
2016-11-27T04:01:26.351Z,19.68
2016-11-27T04:01:54.445Z,19.71
2016-11-27T04:02:22.552Z,19.7
2016-11-27T04:03:28.123Z,19.75
2016-11-27T04:03:56.251Z,19.72
2016-11-27T04:04:24.293Z,19.74
2016-11-27T04:04:52.468Z,19.7
2016-11-27T04:05:20.703Z,19.75
2016-11-27T04:05:48.781Z,19.74
2016-11-27T04:06:16.871Z,19.74
2016-11-27T04:06:45.106Z,19.74
2016-11-27T04:07:13.149Z,19.75
2016-11-27T04:07:41.292Z,19.75
2016-11-27T04:08:09.467Z,19.75
2016-11-27T04:08:37.684Z,19.71
2016-11-27T04:09:05.651Z,19.68
2016-11-27T04:09:33.927Z,19.72
2016-11-27T04:10:02.097Z,19.72
2016-11-27T04:10:30.304Z,19.74
2016-11-27T04:10:58.373Z,19.75
2016-11-27T04:11:26.446Z,19.71
2016-11-27T04:11:54.607Z,19.71
2016-11-27T04:12:22.890Z,19.74
2016-11-27T04:12:50.981Z,19.8
2016-11-27T04:13:18.824Z,19.8
2016-11-27T04:13:47.086Z,19.8
2016-11-27T04:14:15.027Z,19.75
2016-11-27T04:14:43.106Z,19.74
2016-11-27T04:15:11.332Z,19.83
2016-11-27T04:15:39.388Z,19.86
2016-11-27T04:16:07.580Z,19.79
2016-11-27T04:16:35.842Z,19.71
2016-11-27T04:17:04.032Z,19.8
2016-11-27T04:17:32.104Z,19.82
2016-11-27T04:18:00.393Z,19.83
2016-11-27T04:18:28.647Z,19.82
2016-11-27T04:18:56.691Z,19.83
2016-11-27T04:19:24.800Z,19.82
2016-11-27T04:19:53.265Z,19.85
2016-11-27T04:20:21.422Z,19.83
2016-11-27T04:20:49.658Z,19.79
2016-11-27T04:21:17.756Z,19.82
2016-11-27T04:21:45.824Z,19.82
2016-11-27T04:22:13.924Z,19.86
2016-11-27T04:22:42.023Z,19.71
2016-11-27T04:23:10.120Z,19.8
2016-11-27T04:23:38.339Z,19.82
2016-11-27T04:24:06.557Z,19.85
2016-11-27T04:24:34.801Z,19.79
2016-11-27T04:25:03.174Z,19.74
2016-11-27T04:25:31.200Z,19.72
2016-11-27T04:25:59.426Z,19.85
2016-11-27T04:26:27.462Z,19.82
2016-11-27T04:26:55.527Z,19.8
2016-11-27T04:27:23.737Z,19.79
2016-11-27T04:27:52.001Z,19.8
2016-11-27T04:28:20.198Z,19.8
2016-11-27T04:28:48.250Z,19.8
2016-11-27T04:29:16.426Z,19.8
2016-11-27T04:29:44.453Z,19.8
2016-11-27T04:30:12.551Z,19.8
2016-11-27T04:30:40.787Z,19.78
2016-11-27T04:31:08.981Z,19.79
2016-11-27T04:31:37.066Z,19.8
2016-11-27T04:32:05.222Z,19.82
2016-11-27T04:32:33.474Z,19.85
2016-11-27T04:33:01.714Z,19.82
2016-11-27T04:33:29.976Z,19.85
2016-11-27T04:33:58.083Z,19.86
2016-11-27T04:34:26.378Z,19.89
2016-11-27T04:34:54.514Z,19.89
2016-11-27T04:35:22.668Z,19.93
2016-11-27T04:35:50.855Z,19.8
2016-11-27T04:36:19.119Z,19.79
2016-11-27T04:36:47.409Z,19.86
2016-11-27T04:37:15.588Z,19.86
2016-11-27T04:37:43.863Z,19.83
2016-11-27T04:38:11.931Z,19.82
2016-11-27T04:38:40.014Z,19.85
2016-11-27T04:39:08.143Z,19.83
2016-11-27T04:39:36.297Z,19.83
2016-11-27T04:40:04.499Z,19.78
2016-11-27T04:40:32.551Z,19.82
2016-11-27T04:41:00.750Z,19.85
2016-11-27T04:41:29.042Z,19.8
2016-11-27T04:41:57.146Z,19.82
2016-11-27T04:42:25.342Z,19.79
2016-11-27T04:42:53.392Z,19.74
2016-11-27T04:43:21.518Z,19.74
2016-11-27T04:43:49.689Z,19.72
2016-11-27T04:44:17.796Z,19.7
2016-11-27T04:44:45.945Z,19.72
2016-11-27T04:45:14.079Z,19.72
2016-11-27T04:45:42.037Z,19.78
2016-11-27T04:46:10.257Z,19.7
2016-11-27T04:46:38.503Z,19.74
2016-11-27T04:47:06.821Z,19.74
2016-11-27T04:47:35.137Z,19.71
2016-11-27T04:48:03.354Z,19.7
2016-11-27T04:48:31.714Z,19.65
2016-11-27T04:48:59.874Z,19.74
2016-11-27T04:49:28.069Z,19.7
2016-11-27T04:49:56.178Z,19.78
2016-11-27T04:50:24.251Z,19.64
2016-11-27T04:50:52.479Z,19.65
2016-11-27T04:51:20.694Z,19.67
2016-11-27T04:51:48.906Z,19.65
2016-11-27T04:52:17.107Z,19.64
2016-11-27T04:52:45.289Z,19.64
2016-11-27T04:53:13.618Z,19.64
2016-11-27T04:53:41.967Z,19.64
2016-11-27T04:54:10.125Z,19.57
2016-11-27T04:54:38.303Z,19.55
2016-11-27T04:55:06.559Z,19.63
2016-11-27T04:55:34.961Z,19.57
2016-11-27T04:56:03.101Z,19.53
2016-11-27T04:56:31.252Z,19.61
2016-11-27T04:56:59.340Z,19.55
2016-11-27T04:57:27.548Z,19.5
2016-11-27T04:57:55.728Z,19.64
2016-11-27T04:58:23.895Z,19.5
2016-11-27T04:58:51.869Z,19.53
2016-11-27T04:59:19.980Z,19.55
2016-11-27T04:59:48.167Z,19.49
2016-11-27T05:00:16.169Z,19.5
2016-11-27T05:00:44.394Z,19.6
2016-11-27T05:01:12.431Z,19.52
2016-11-27T05:01:40.697Z,19.52
2016-11-27T05:02:08.831Z,19.53
2016-11-27T05:02:37.089Z,19.53
2016-11-27T05:03:05.243Z,19.46
2016-11-27T05:03:33.419Z,19.5
2016-11-27T05:04:01.403Z,19.49
2016-11-27T05:04:29.711Z,19.45
2016-11-27T05:04:57.944Z,19.49
2016-11-27T05:05:26.313Z,19.46
2016-11-27T05:05:54.661Z,19.46
2016-11-27T05:06:22.866Z,19.43
2016-11-27T05:06:50.937Z,19.4
2016-11-27T05:07:19.051Z,19.35
2016-11-27T05:07:47.314Z,19.31
2016-11-27T05:08:15.486Z,19.43
2016-11-27T05:08:43.502Z,19.32
2016-11-27T05:09:11.722Z,19.37
2016-11-27T05:09:39.931Z,19.37
2016-11-27T05:10:08.078Z,19.38
2016-11-27T05:10:36.324Z,19.32
2016-11-27T05:11:04.625Z,19.34
2016-11-27T05:11:53.223Z,19.37
2016-11-27T05:12:21.519Z,19.46
2016-11-27T05:12:49.766Z,19.37
2016-11-27T05:13:17.942Z,19.43
2016-11-27T05:13:46.277Z,19.4
2016-11-27T05:14:14.511Z,19.42
2016-11-27T05:14:42.835Z,19.43
2016-11-27T05:15:10.959Z,19.37
2016-11-27T05:15:39.522Z,19.43
2016-11-27T05:16:07.789Z,19.38
2016-11-27T05:16:36.016Z,19.43
2016-11-27T05:17:04.281Z,19.43
2016-11-27T05:17:32.345Z,19.45
2016-11-27T05:18:00.553Z,19.35
2016-11-27T05:18:28.719Z,19.46
2016-11-27T05:18:56.791Z,19.38
2016-11-27T05:19:25.129Z,19.37
2016-11-27T05:19:53.328Z,19.46
2016-11-27T05:20:21.618Z,19.46
2016-11-27T05:20:49.628Z,19.46
2016-11-27T05:21:17.864Z,19.34
2016-11-27T05:21:46.133Z,19.37
2016-11-27T05:22:14.211Z,19.4
2016-11-27T05:22:42.451Z,19.34
2016-11-27T05:23:10.683Z,19.34
2016-11-27T05:23:38.896Z,19.28
2016-11-27T05:24:07.107Z,19.32
2016-11-27T05:24:35.366Z,19.34
2016-11-27T05:25:03.552Z,19.4
2016-11-27T05:25:31.867Z,19.3
2016-11-27T05:25:59.995Z,19.34
2016-11-27T05:26:28.181Z,19.3
2016-11-27T05:26:56.352Z,19.32
2016-11-27T05:27:24.591Z,19.28
2016-11-27T05:27:52.832Z,19.35
2016-11-27T05:28:21.091Z,19.35
2016-11-27T05:28:49.150Z,19.35
2016-11-27T05:29:17.393Z,19.35
2016-11-27T05:29:45.482Z,19.31
2016-11-27T05:30:13.762Z,19.35
2016-11-27T05:30:41.785Z,19.31
2016-11-27T05:31:09.891Z,19.32
2016-11-27T05:31:38.058Z,19.38
2016-11-27T05:32:06.237Z,19.35
2016-11-27T05:32:34.437Z,19.34
2016-11-27T05:33:02.586Z,19.49
2016-11-27T05:33:30.799Z,19.5
2016-11-27T05:33:58.732Z,19.49
2016-11-27T05:34:26.926Z,19.47
2016-11-27T05:34:55.114Z,19.5
2016-11-27T05:35:23.015Z,19.53
2016-11-27T05:35:51.299Z,19.61
2016-11-27T05:36:45.520Z,19.49
2016-11-27T05:37:13.781Z,19.52
2016-11-27T05:37:41.942Z,19.53
2016-11-27T05:38:10.121Z,19.56
2016-11-27T05:38:38.429Z,19.61
2016-11-27T05:39:06.674Z,19.63
2016-11-27T05:39:34.733Z,19.64
2016-11-27T05:40:02.966Z,19.64
2016-11-27T05:40:31.143Z,19.63
2016-11-27T05:40:59.412Z,19.67
2016-11-27T05:41:27.705Z,19.64
2016-11-27T05:41:55.954Z,19.63
2016-11-27T05:42:24.188Z,19.67
2016-11-27T05:42:52.379Z,19.67
2016-11-27T05:43:20.563Z,19.67
2016-11-27T05:43:48.562Z,19.65
2016-11-27T05:44:16.741Z,19.61
2016-11-27T05:44:44.933Z,19.65
2016-11-27T05:45:13.202Z,19.65
2016-11-27T05:45:41.483Z,19.61
2016-11-27T05:46:09.789Z,19.65
2016-11-27T05:46:37.804Z,19.7
2016-11-27T05:47:05.791Z,19.67
2016-11-27T05:47:34.076Z,19.75
2016-11-27T05:48:02.140Z,19.71
2016-11-27T05:48:30.395Z,19.74
2016-11-27T05:48:58.587Z,19.74
2016-11-27T05:49:26.686Z,19.74
2016-11-27T05:49:54.856Z,19.71
2016-11-27T05:50:23.026Z,19.78
2016-11-27T05:50:51.378Z,19.72
2016-11-27T05:51:19.585Z,19.74
2016-11-27T05:51:47.668Z,19.75
2016-11-27T05:52:15.834Z,19.78
2016-11-27T05:52:44.023Z,19.74
2016-11-27T05:53:12.278Z,19.74
2016-11-27T05:53:40.423Z,19.75
2016-11-27T05:54:08.624Z,19.74
2016-11-27T05:54:36.832Z,19.8
2016-11-27T05:55:05.116Z,19.78
2016-11-27T05:55:33.283Z,19.85
2016-11-27T05:56:01.631Z,19.82
2016-11-27T05:56:29.734Z,19.8
2016-11-27T05:56:57.821Z,19.82
2016-11-27T05:57:25.979Z,19.8
2016-11-27T05:57:54.130Z,19.8
2016-11-27T05:58:22.394Z,19.8
2016-11-27T05:58:50.561Z,19.82
2016-11-27T05:59:44.831Z,19.82
2016-11-27T06:00:12.918Z,19.83
2016-11-27T06:00:41.103Z,19.86
2016-11-27T06:01:09.359Z,19.9
2016-11-27T06:01:37.370Z,19.9
2016-11-27T06:02:05.590Z,19.89
2016-11-27T06:02:33.783Z,19.92
2016-11-27T06:03:02.052Z,19.93
2016-11-27T06:03:30.054Z,19.93
2016-11-27T06:03:58.216Z,19.93
2016-11-27T06:04:26.397Z,19.95
2016-11-27T06:04:54.578Z,19.97
2016-11-27T06:05:22.513Z,19.89
2016-11-27T06:05:50.638Z,20.01
2016-11-27T06:06:18.588Z,20.02
2016-11-27T06:06:46.697Z,19.93
2016-11-27T06:07:14.881Z,20
2016-11-27T06:07:42.942Z,20.02
2016-11-27T06:08:10.995Z,19.98
2016-11-27T06:08:39.035Z,20.04
2016-11-27T06:09:07.220Z,20
2016-11-27T06:09:35.504Z,19.98
2016-11-27T06:10:29.742Z,20.02
2016-11-27T06:10:57.792Z,19.92
2016-11-27T06:11:25.843Z,19.93
2016-11-27T06:11:53.950Z,19.95
2016-11-27T06:12:22.026Z,19.97
2016-11-27T06:12:50.286Z,20.04
2016-11-27T06:13:18.544Z,20